Time;durP1;ratioP1;P1;durP2;ratioP2;P2;SDS_P1;SDS_P2;PMS_P1;PMS_P2;Temp;Humidity;BMP_temperature;BMP_pressure;BME280_temperature;BME280_humidity;BME280_pressure;Samples;Min_cycle;Max_cycle;Signal;HPM_P1;HPM_P2
2023/04/28 00:00:14;;;;;;;1.25;1.05;;;;;;;7.87;49.67;100079.66;4437186;32;33794;-79
2023/04/28 00:02:44;;;;;;;1.00;1.00;;;;;;;8.04;49.18;100082.28;4438261;32;33399;-78
2023/04/28 00:05:13;;;;;;;1.90;1.80;;;;;;;8.02;49.20;100078.88;4431400;32;33126;-78
2023/04/28 00:07:42;;;;;;;0.95;0.95;;;;;;;7.86;49.58;100082.25;4444146;32;33979;-82
2023/04/28 00:10:11;;;;;;;1.17;1.17;;;;;;;7.79;50.10;100083.06;4434963;32;34072;-80
2023/04/28 00:12:40;;;;;;;1.10;1.10;;;;;;;7.91;49.27;100085.69;4447441;32;34096;-79
2023/04/28 00:15:09;;;;;;;1.05;1.05;;;;;;;8.19;48.68;100078.03;4431337;32;34617;-81
2023/04/28 00:17:38;;;;;;;1.05;1.05;;;;;;;8.12;48.24;100080.63;4438674;32;33655;-81
2023/04/28 00:20:10;;;;;;;1.00;1.00;;;;;;;8.26;47.94;100079.78;4433332;32;34067;-79
2023/04/28 00:22:39;;;;;;;1.00;1.00;;;;;;;8.34;48.17;100075.50;4445129;32;33701;-79
2023/04/28 00:25:08;;;;;;;0.95;0.95;;;;;;;8.25;48.31;100078.06;4442012;32;33510;-80
2023/04/28 00:27:37;;;;;;;1.10;1.10;;;;;;;8.34;48.36;100071.19;4435502;32;34575;-78
2023/04/28 00:30:07;;;;;;;1.00;1.00;;;;;;;8.39;48.79;100076.38;4443127;32;33508;-79
2023/04/28 00:32:36;;;;;;;1.33;1.23;;;;;;;8.30;49.11;100076.34;4445221;32;33738;-81
2023/04/28 00:35:06;;;;;;;0.90;0.90;;;;;;;8.22;49.19;100080.66;4436219;32;34391;-80
2023/04/28 00:37:37;;;;;;;1.00;1.00;;;;;;;8.21;49.09;100081.47;4430511;32;33917;-81
2023/04/28 00:40:07;;;;;;;1.00;1.00;;;;;;;8.31;49.13;100086.69;4430852;32;33279;-79
2023/04/28 00:42:37;;;;;;;1.00;1.00;;;;;;;8.07;50.17;100077.16;4444182;32;33800;-79
2023/04/28 00:45:07;;;;;;;1.15;1.05;;;;;;;8.17;50.84;100080.63;4451533;32;33341;-81
2023/04/28 00:47:37;;;;;;;1.05;1.05;;;;;;;8.33;50.84;100084.09;4445897;32;33073;-79
2023/04/28 00:50:07;;;;;;;0.90;0.90;;;;;;;8.32;50.87;100082.38;4445071;32;32879;-78
2023/04/28 00:52:38;;;;;;;0.90;0.90;;;;;;;8.44;50.34;100079.84;4446295;32;33647;-81
2023/04/28 00:55:08;;;;;;;1.37;1.27;;;;;;;8.66;49.85;100085.91;4438676;32;33744;-79
2023/04/28 00:57:37;;;;;;;1.12;1.02;;;;;;;7.80;52.74;100087.38;4443999;32;34655;-79
2023/04/28 01:00:07;;;;;;;0.90;0.90;;;;;;;8.12;51.78;100084.94;4429019;32;33565;-80
2023/04/28 01:02:35;;;;;;;1.00;1.00;;;;;;;8.31;50.55;100091.87;4429944;32;33627;-81
2023/04/28 01:05:05;;;;;;;1.00;1.00;;;;;;;8.40;50.48;100093.63;4430034;32;33603;-80
2023/04/28 01:07:34;;;;;;;1.02;1.00;;;;;;;8.28;50.67;100096.16;4442899;32;33330;-79
2023/04/28 01:10:06;;;;;;;1.37;1.27;;;;;;;8.12;50.97;100097.84;4444869;32;33176;-80
2023/04/28 01:12:36;;;;;;;0.90;0.90;;;;;;;8.07;50.94;100096.94;4444208;32;33469;-79
2023/04/28 01:15:06;;;;;;;1.00;1.00;;;;;;;7.94;51.02;100092.59;4435078;32;34751;-79
2023/04/28 01:17:35;;;;;;;1.75;1.65;;;;;;;7.99;50.79;100098.66;4436076;32;35151;-80
2023/04/28 01:20:05;;;;;;;0.90;0.90;;;;;;;7.84;51.18;100100.31;4438283;32;33829;-79
2023/04/28 01:22:33;;;;;;;0.90;0.90;;;;;;;7.88;50.97;100096.03;4429498;32;33294;-79
2023/04/28 01:25:05;;;;;;;0.90;0.90;;;;;;;7.68;51.36;100101.06;4434297;32;34390;-79
2023/04/28 01:27:34;;;;;;;1.00;1.00;;;;;;;7.76;51.27;100095.97;4440846;32;34240;-82
2023/04/28 01:30:03;;;;;;;1.00;1.00;;;;;;;7.58;51.69;100099.31;4442450;32;33118;-81
2023/04/28 01:32:32;;;;;;;1.00;1.00;;;;;;;7.25;52.39;100093.09;4428971;32;33459;-80
2023/04/28 01:35:03;;;;;;;0.93;0.93;;;;;;;7.37;52.14;100088.03;4434477;32;32080;-81
2023/04/28 01:37:35;;;;;;;0.90;0.90;;;;;;;7.28;52.12;100080.22;4433362;32;34247;-79
2023/04/28 01:40:06;;;;;;;1.02;1.02;;;;;;;7.50;51.93;100082.94;4438364;32;34064;-80
2023/04/28 01:42:35;;;;;;;1.15;1.00;;;;;;;7.52;51.93;100081.22;4446043;32;33589;-78
2023/04/28 01:45:05;;;;;;;1.00;1.00;;;;;;;7.22;52.69;100088.78;4429071;32;34498;-81
2023/04/28 01:47:34;;;;;;;1.80;1.37;;;;;;;7.42;52.74;100085.47;4432588;32;33822;-78
2023/04/28 01:50:02;;;;;;;1.27;1.20;;;;;;;7.30;52.97;100083.69;4427364;32;32698;-81
2023/04/28 01:52:31;;;;;;;1.10;1.10;;;;;;;7.12;53.45;100086.12;4445538;32;33916;-81
2023/04/28 01:55:00;;;;;;;1.00;1.00;;;;;;;7.11;53.57;100079.25;4428218;32;34510;-80
2023/04/28 01:57:32;;;;;;;1.00;1.00;;;;;;;7.23;53.60;100072.44;4429602;32;33138;-79
2023/04/28 02:00:01;;;;;;;1.05;1.05;;;;;;;7.09;54.16;100081.81;4427950;32;33032;-79
2023/04/28 02:02:30;;;;;;;1.27;1.17;;;;;;;6.86;54.65;100083.34;4444787;32;34205;-82
2023/04/28 02:05:00;;;;;;;1.00;1.00;;;;;;;6.95;54.64;100091.16;4439701;32;33662;-78
2023/04/28 02:07:29;;;;;;;1.10;1.10;;;;;;;6.98;54.08;100088.59;4445690;32;34259;-79
2023/04/28 02:09:57;;;;;;;1.00;1.00;;;;;;;7.12;52.82;100093.84;4438437;32;33264;-78
2023/04/28 02:12:27;;;;;;;1.00;1.00;;;;;;;7.04;52.42;100088.66;4438901;32;34385;-79
2023/04/28 02:14:57;;;;;;;1.10;1.10;;;;;;;6.74;53.37;100092.72;4446838;32;33993;-80
2023/04/28 02:17:29;;;;;;;1.10;1.10;;;;;;;6.97;52.85;100095.47;4432089;32;34343;-79
2023/04/28 02:19:58;;;;;;;;;;;;;;;6.94;52.79;100094.59;4445590;32;33444;-78
2023/04/28 02:22:27;;;;;;;1.20;1.20;;;;;;;6.90;53.02;100098.84;4445203;32;34258;-81
2023/04/28 02:24:56;;;;;;;1.20;1.20;;;;;;;6.66;53.73;100096.06;4450361;32;33729;-78
2023/04/28 02:27:25;;;;;;;1.30;1.20;;;;;;;6.81;53.40;100097.06;4444932;32;34184;-80
2023/04/28 02:29:57;;;;;;;1.20;1.20;;;;;;;6.86;53.37;100089.34;4445455;32;33291;-81
2023/04/28 02:32:26;;;;;;;1.27;1.20;;;;;;;6.83;53.44;100094.50;4438995;32;33916;-80
2023/04/28 02:34:55;;;;;;;1.50;1.40;;;;;;;6.82;53.58;100097.94;4439716;32;34510;-81
2023/04/28 02:37:25;;;;;;;2.30;1.30;;;;;;;6.76;53.63;100098.72;4441348;32;34493;-81
2023/04/28 02:39:53;;;;;;;1.05;1.05;;;;;;;6.80;53.64;100090.16;4433322;32;33262;-79
2023/04/28 02:42:23;;;;;;;1.10;1.10;;;;;;;7.01;52.94;100091.22;4427650;32;34451;-81
2023/04/28 02:44:51;;;;;;;1.92;1.35;;;;;;;6.82;53.86;100096.22;4431063;32;34778;-79
2023/04/28 02:47:21;;;;;;;1.00;1.00;;;;;;;6.69;54.45;100102.09;4449607;32;33510;-79
2023/04/28 02:49:52;;;;;;;1.75;1.65;;;;;;;6.84;54.23;100099.66;4440584;32;33072;-79
2023/04/28 02:52:22;;;;;;;1.20;1.20;;;;;;;6.96;54.18;100095.44;4432572;32;33650;-78
2023/04/28 02:54:53;;;;;;;1.20;1.20;;;;;;;6.90;54.43;100092.81;4434619;32;33685;-81
2023/04/28 02:57:22;;;;;;;1.10;1.10;;;;;;;6.72;54.76;100091.84;4444669;32;33507;-80
2023/04/28 02:59:51;;;;;;;1.48;1.37;;;;;;;6.84;53.73;100086.78;4443586;32;33027;-79
2023/04/28 03:02:21;;;;;;;1.10;1.10;;;;;;;6.95;53.17;100093.72;4432179;32;34824;-81
2023/04/28 03:04:52;;;;;;;1.10;1.10;;;;;;;6.89;53.18;100101.44;4443716;32;33745;-78
2023/04/28 03:07:21;;;;;;;1.15;1.10;;;;;;;6.84;53.16;100099.66;4434551;32;33752;-80
2023/04/28 03:09:50;;;;;;;1.02;1.02;;;;;;;6.79;53.15;100105.63;4437084;32;33297;-82
2023/04/28 03:12:19;;;;;;;1.30;1.20;;;;;;;6.57;53.64;100097.72;4434816;32;34100;-80
2023/04/28 03:14:47;;;;;;;1.40;1.30;;;;;;;7.01;52.51;100097.22;4430766;32;34550;-80
2023/04/28 03:17:16;;;;;;;1.65;1.55;;;;;;;7.05;52.16;100100.69;4443236;32;33533;-79
2023/04/28 03:19:46;;;;;;;1.65;1.55;;;;;;;6.84;52.72;100109.13;4443720;32;34693;-81
2023/04/28 03:22:16;;;;;;;1.45;1.37;;;;;;;6.89;52.76;100104.00;4435799;32;33714;-80
2023/04/28 03:24:45;;;;;;;1.00;1.00;;;;;;;6.76;53.42;100108.19;4430052;32;33896;-79
2023/04/28 03:27:14;;;;;;;1.50;1.40;;;;;;;7.00;53.38;100099.78;4437678;32;34846;-79
2023/04/28 03:29:43;;;;;;;1.40;1.30;;;;;;;7.00;53.08;100102.34;4439125;32;33737;-79
2023/04/28 03:32:15;;;;;;;1.10;1.10;;;;;;;6.74;53.39;100091.81;4446025;32;33514;-78
2023/04/28 03:34:44;;;;;;;1.20;1.20;;;;;;;6.80;53.09;100100.47;4445433;32;33569;-79
2023/04/28 03:37:13;;;;;;;1.10;1.10;;;;;;;6.81;53.06;100106.50;4432964;32;34040;-81
2023/04/28 03:39:43;;;;;;;1.20;1.20;;;;;;;6.74;53.01;100100.44;4438011;32;34038;-79
2023/04/28 03:42:12;;;;;;;1.33;1.23;;;;;;;6.91;52.61;100102.28;4436893;32;33830;-80
2023/04/28 03:44:43;;;;;;;1.10;1.10;;;;;;;7.10;51.93;100105.88;4443126;32;32387;-80
2023/04/28 03:47:13;;;;;;;1.33;1.23;;;;;;;6.96;52.43;100106.66;4436559;32;33988;-81
2023/04/28 03:49:42;;;;;;;1.00;1.00;;;;;;;7.17;52.07;100099.91;4445871;32;33176;-78
2023/04/28 03:52:11;;;;;;;1.27;1.17;;;;;;;7.14;52.01;100105.91;4439338;32;33450;-81
2023/04/28 03:54:40;;;;;;;1.55;1.45;;;;;;;7.10;52.11;100108.47;4446477;32;33567;-79
2023/04/28 03:57:11;;;;;;;1.10;1.10;;;;;;;7.13;52.05;100104.19;4441421;32;33618;-80
2023/04/28 03:59:39;;;;;;;1.30;1.20;;;;;;;7.32;51.83;100110.34;4430976;32;33187;-79
2023/04/28 04:02:10;;;;;;;1.00;1.00;;;;;;;6.98;53.66;100114.38;4430898;32;34098;-82
2023/04/28 04:04:39;;;;;;;1.00;1.00;;;;;;;7.21;53.51;100118.00;4436685;32;34001;-80
2023/04/28 04:07:09;;;;;;;1.50;1.40;;;;;;;7.22;53.38;100113.72;4433674;32;34573;-78
2023/04/28 04:09:38;;;;;;;1.10;1.10;;;;;;;7.53;52.70;100113.91;4431033;32;33409;-77
2023/04/28 04:12:07;;;;;;;1.08;1.08;;;;;;;7.40;52.38;100120.72;4440123;32;34580;-79
2023/04/28 04:14:39;;;;;;;1.10;1.10;;;;;;;7.27;52.14;100124.91;4442706;32;33334;-81
2023/04/28 04:17:08;;;;;;;1.40;1.30;;;;;;;7.38;51.91;100119.84;4452007;32;34693;-80
2023/04/28 04:19:37;;;;;;;1.00;1.00;;;;;;;7.39;51.96;100127.63;4442817;32;89566;-80
2023/04/28 04:22:10;;;;;;;1.10;1.10;;;;;;;7.38;51.62;100123.28;4445614;32;34461;-80
2023/04/28 04:24:39;;;;;;;2.62;2.42;;;;;;;7.72;51.23;100127.81;4436593;32;33848;-81
2023/04/28 04:27:08;;;;;;;1.00;1.00;;;;;;;7.77;50.95;100126.97;4440069;32;34140;-79
2023/04/28 04:29:38;;;;;;;0.95;0.95;;;;;;;7.95;50.17;100128.78;4438227;32;34128;-79
2023/04/28 04:32:08;;;;;;;5.15;3.53;;;;;;;8.00;50.23;100124.50;4439926;32;33856;-80
2023/04/28 04:34:36;;;;;;;1.85;1.75;;;;;;;7.97;50.88;100119.28;4443057;32;33708;-79
2023/04/28 04:37:06;;;;;;;0.90;0.90;;;;;;;8.47;49.97;100128.13;4429227;32;34406;-81
2023/04/28 04:39:36;;;;;;;0.90;0.90;;;;;;;8.83;48.74;100131.63;4435741;32;33495;-82
2023/04/28 04:42:05;;;;;;;0.90;0.90;;;;;;;9.02;48.80;100124.75;4443848;32;34161;-79
2023/04/28 04:44:53;;;;;;;0.95;0.95;;;;;;;8.62;49.76;100132.47;4438245;32;33626;-81
2023/04/28 04:47:23;;;;;;;1.00;1.00;;;;;;;8.80;49.38;100131.63;4436515;32;34352;-83
2023/04/28 04:49:52;;;;;;;1.65;1.50;;;;;;;9.31;48.41;100124.72;4429193;32;32940;-82
2023/04/28 04:52:21;;;;;;;1.62;1.52;;;;;;;9.06;48.88;100129.03;4451843;32;33548;-83
2023/04/28 04:54:51;;;;;;;1.20;1.10;;;;;;;9.79;47.70;100123.78;4437208;32;33784;-83
2023/04/28 04:57:20;;;;;;;0.90;0.90;;;;;;;10.44;46.42;100132.16;4434009;32;33772;-83
2023/04/28 04:59:53;;;;;;;;;;;;;;;10.74;45.74;100129.38;4434338;32;34602;-81
2023/04/28 05:02:22;;;;;;;0.80;0.80;;;;;;;11.66;43.70;100123.38;4445429;32;34382;-82
2023/04/28 05:04:51;;;;;;;0.88;0.88;;;;;;;11.81;43.49;100125.81;4438916;32;33658;-83
2023/04/28 05:07:21;;;;;;;1.15;0.93;;;;;;;12.54;41.66;100131.87;4440352;32;32610;-79
2023/04/28 05:09:50;;;;;;;1.33;1.00;;;;;;;12.97;41.06;100131.19;4442270;32;33209;-81
2023/04/28 05:12:21;;;;;;;1.12;1.10;;;;;;;12.76;41.87;100129.81;4430341;32;34218;-81
2023/04/28 05:14:50;;;;;;;1.45;1.35;;;;;;;13.43;40.29;100116.56;4441129;32;33713;-81
2023/04/28 05:17:21;;;;;;;1.33;1.10;;;;;;;12.98;41.27;100130.34;4428746;32;33788;-79
2023/04/28 05:19:50;;;;;;;0.90;0.90;;;;;;;12.10;42.61;100132.44;4430591;32;32516;-79
2023/04/28 05:22:19;;;;;;;0.80;0.80;;;;;;;13.08;41.29;100132.78;4431258;32;33113;-81
2023/04/28 05:24:48;;;;;;;0.80;0.80;;;;;;;12.60;42.62;100136.13;4437829;32;34398;-80
2023/04/28 05:27:18;;;;;;;0.80;0.80;;;;;;;12.37;43.38;100132.09;4441770;32;33465;-80
2023/04/28 05:29:47;;;;;;;2.40;1.08;;;;;;;11.75;44.72;100131.94;4440765;32;34031;-81
2023/04/28 05:32:15;;;;;;;0.80;0.80;;;;;;;11.56;44.46;100138.22;4445097;32;34579;-81
2023/04/28 05:34:46;;;;;;;2.75;2.50;;;;;;;12.00;43.95;100136.03;4435445;32;35271;-82
2023/04/28 05:37:15;;;;;;;1.77;0.90;;;;;;;11.67;44.58;100136.38;4436033;32;33085;-81
2023/04/28 05:39:44;;;;;;;1.40;1.10;;;;;;;11.05;46.02;100132.63;4438477;32;34017;-81
2023/04/28 05:42:14;;;;;;;0.90;0.90;;;;;;;10.58;46.88;100141.59;4445548;32;34625;-79
2023/04/28 05:44:43;;;;;;;1.50;1.00;;;;;;;10.55;47.30;100137.28;4444758;32;34380;-79
2023/04/28 05:47:12;;;;;;;1.10;1.00;;;;;;;10.61;47.55;100139.84;4435434;32;33767;-79
2023/04/28 05:49:41;;;;;;;1.45;1.35;;;;;;;10.96;46.90;100137.88;4442615;32;32595;-80
2023/04/28 05:52:11;;;;;;;1.27;1.17;;;;;;;11.37;46.05;100142.72;4433952;32;34416;-79
2023/04/28 05:54:40;;;;;;;1.00;0.90;;;;;;;11.71;45.47;100142.37;4441917;32;35016;-81
2023/04/28 05:57:11;;;;;;;1.00;0.90;;;;;;;11.74;44.58;100143.22;4443536;32;33973;-80
2023/04/28 05:59:40;;;;;;;1.05;1.00;;;;;;;11.47;45.21;100143.50;4432368;32;33391;-79
2023/04/28 06:02:09;;;;;;;1.00;0.90;;;;;;;12.10;43.77;100145.44;4438167;32;35075;-82
2023/04/28 06:04:39;;;;;;;1.12;1.10;;;;;;;11.44;44.43;100143.53;4434753;32;34521;-81
2023/04/28 06:07:08;;;;;;;1.15;1.05;;;;;;;11.50;45.10;100144.34;4429744;32;33965;-80
2023/04/28 06:09:38;;;;;;;0.88;0.88;;;;;;;11.37;44.52;100147.06;4436863;32;34096;-80
2023/04/28 06:12:08;;;;;;;0.90;0.90;;;;;;;12.24;42.90;100153.09;4434292;32;33868;-81
2023/04/28 06:14:37;;;;;;;0.80;0.80;;;;;;;11.71;43.19;100155.37;4426811;32;34543;-81
2023/04/28 06:17:05;;;;;;;1.05;1.05;;;;;;;12.20;42.50;100157.44;4428475;32;33682;-81
2023/04/28 06:19:34;;;;;;;0.82;0.82;;;;;;;12.34;41.84;100152.94;4433318;32;33714;-81
2023/04/28 06:22:03;;;;;;;1.25;1.15;;;;;;;11.70;42.46;100156.28;4428836;32;35232;-82
2023/04/28 06:24:32;;;;;;;0.70;0.70;;;;;;;12.55;40.41;100162.19;4432145;32;33997;-82
2023/04/28 06:27:04;;;;;;;1.30;1.12;;;;;;;12.31;41.51;100158.19;4444179;32;34194;-82
2023/04/28 06:29:32;;;;;;;0.82;0.82;;;;;;;12.58;40.31;100156.94;4445027;32;32626;-80
2023/04/28 06:32:01;;;;;;;0.95;0.90;;;;;;;12.47;40.70;100150.19;4446940;32;33558;-80
2023/04/28 06:34:30;;;;;;;1.25;1.15;;;;;;;12.44;40.41;100158.03;4429734;32;33684;-81
2023/04/28 06:36:59;;;;;;;1.73;1.20;;;;;;;11.95;40.57;100152.53;4429644;32;33832;-80
2023/04/28 06:39:28;;;;;;;0.80;0.80;;;;;;;11.74;41.35;100150.13;4440458;32;33304;-80
2023/04/28 06:41:59;;;;;;;0.93;0.93;;;;;;;11.56;41.19;100161.59;4450479;32;33652;-81
2023/04/28 06:44:30;;;;;;;0.68;0.68;;;;;;;11.89;40.72;100155.22;4444544;32;33569;-81
2023/04/28 06:46:59;;;;;;;0.70;0.70;;;;;;;11.45;40.57;100159.13;4444927;32;33120;-81
2023/04/28 06:49:28;;;;;;;0.70;0.70;;;;;;;11.57;41.20;100158.09;4440276;32;33376;-79
2023/04/28 06:51:59;;;;;;;1.67;1.58;;;;;;;11.86;40.99;100164.75;4434861;32;33564;-80
2023/04/28 06:54:30;;;;;;;;;;;;;;;12.21;40.45;100160.94;4435569;32;34359;-82
2023/04/28 06:56:59;;;;;;;1.00;1.00;;;;;;;12.27;41.08;100161.69;4433105;32;33776;-79
2023/04/28 06:59:30;;;;;;;0.98;0.98;;;;;;;12.49;41.31;100164.91;4431619;32;32913;-79
2023/04/28 07:01:59;;;;;;;;;;;;;;;12.37;41.01;100155.50;4438966;32;33806;-80
2023/04/28 07:04:28;;;;;;;2.70;0.77;;;;;;;12.25;41.47;100157.38;4434785;32;33559;-79
2023/04/28 07:06:57;;;;;;;0.80;0.80;;;;;;;12.57;40.51;100154.38;4429310;32;33495;-80
2023/04/28 07:09:26;;;;;;;1.15;0.85;;;;;;;12.77;39.76;100159.31;4430794;32;33343;-81
2023/04/28 07:11:57;;;;;;;0.90;0.90;;;;;;;12.55;40.21;100150.94;4437291;32;34536;-80
2023/04/28 07:14:26;;;;;;;1.80;1.25;;;;;;;13.37;39.09;100148.81;4447430;32;33719;-82
2023/04/28 07:16:57;;;;;;;0.80;0.80;;;;;;;12.96;40.02;100152.94;4450202;32;34241;-81
2023/04/28 07:19:26;;;;;;;0.80;0.80;;;;;;;13.88;39.02;100155.72;4444480;32;32441;-79
2023/04/28 07:21:54;;;;;;;0.70;0.70;;;;;;;13.75;39.84;100149.00;4444457;32;34311;-82
2023/04/28 07:24:23;;;;;;;1.17;1.08;;;;;;;13.88;39.67;100150.50;4445311;32;33731;-82
2023/04/28 07:26:52;;;;;;;0.80;0.80;;;;;;;13.71;39.86;100140.38;4449989;32;33541;-80
2023/04/28 07:29:21;;;;;;;0.93;0.90;;;;;;;13.78;40.83;100151.56;4444284;32;33275;-79
2023/04/28 07:31:52;;;;;;;1.17;1.02;;;;;;;13.52;40.59;100152.03;4446267;32;32950;-81
2023/04/28 07:34:23;;;;;;;1.12;1.02;;;;;;;13.75;40.07;100146.41;4446587;32;34608;-82
2023/04/28 07:36:52;;;;;;;0.80;0.80;;;;;;;13.98;39.86;100144.22;4452155;32;35758;-82
2023/04/28 07:39:20;;;;;;;0.68;0.68;;;;;;;14.06;40.00;100147.53;4440553;32;33202;-81
2023/04/28 07:41:50;;;;;;;0.80;0.77;;;;;;;13.92;40.04;100143.47;4446563;32;34532;-79
2023/04/28 07:44:18;;;;;;;0.75;0.70;;;;;;;14.28;38.98;100139.28;4446237;32;33654;-80
2023/04/28 07:46:47;;;;;;;1.40;1.30;;;;;;;14.65;38.59;100135.87;4446362;32;33928;-80
2023/04/28 07:49:19;;;;;;;1.67;1.45;;;;;;;14.36;39.33;100137.34;4452256;32;32701;-81
2023/04/28 07:51:52;;;;;;;0.60;0.60;;;;;;;14.26;39.21;100133.22;4434402;32;33647;-80
2023/04/28 07:54:21;;;;;;;0.50;0.50;;;;;;;14.85;38.35;100133.66;4431236;32;33749;-80
2023/04/28 07:56:50;;;;;;;1.02;0.80;;;;;;;15.43;36.09;100130.50;4430772;32;33992;-81
2023/04/28 07:59:18;;;;;;;0.50;0.50;;;;;;;15.69;35.91;100119.34;4436602;32;34178;-82
2023/04/28 08:01:47;;;;;;;0.50;0.50;;;;;;;15.74;34.76;100107.03;4446097;32;33591;-79
2023/04/28 08:04:16;;;;;;;0.70;0.70;;;;;;;15.93;34.22;100115.22;4446055;32;33927;-82
2023/04/28 08:06:46;;;;;;;0.50;0.50;;;;;;;16.36;33.91;100108.72;4444296;32;33720;-80
2023/04/28 08:09:16;;;;;;;0.70;0.70;;;;;;;16.45;32.96;100105.81;4432097;32;33139;-81
2023/04/28 08:11:45;;;;;;;0.62;0.62;;;;;;;16.58;33.86;100104.53;4443410;32;33089;-80
2023/04/28 08:14:14;;;;;;;0.65;0.65;;;;;;;16.53;33.67;100106.44;4441955;32;33995;-81
2023/04/28 08:16:44;;;;;;;1.00;0.70;;;;;;;16.55;32.35;100099.41;4445683;32;33645;-82
2023/04/28 08:19:14;;;;;;;0.70;0.70;;;;;;;16.78;33.38;100103.06;4444763;32;32995;-82
2023/04/28 08:21:42;;;;;;;1.65;0.60;;;;;;;16.73;32.56;100089.25;4451670;32;33659;-80
2023/04/28 08:24:11;;;;;;;0.93;0.93;;;;;;;16.56;33.07;100092.41;4446072;32;34438;-80
2023/04/28 08:26:42;;;;;;;1.40;0.80;;;;;;;16.81;32.96;100088.09;4430889;32;34157;-81
2023/04/28 08:29:10;;;;;;;1.00;0.82;;;;;;;16.98;33.61;100084.94;4437732;32;32976;-81
2023/04/28 08:31:39;;;;;;;0.50;0.50;;;;;;;16.51;32.15;100094.31;4430806;32;32590;-80
2023/04/28 08:34:08;;;;;;;0.60;0.60;;;;;;;16.90;31.81;100086.97;4434598;32;33538;-80
2023/04/28 08:36:37;;;;;;;0.50;0.50;;;;;;;16.56;33.19;100084.53;4428878;32;33796;-79
2023/04/28 08:39:07;;;;;;;0.90;0.90;;;;;;;16.57;31.68;100087.09;4439804;32;34057;-81
2023/04/28 08:41:38;;;;;;;0.57;0.57;;;;;;;16.88;32.61;100080.91;4443704;32;34148;-81
2023/04/28 08:44:10;;;;;;;0.70;0.70;;;;;;;17.09;32.91;100089.84;4450170;32;33615;-80
2023/04/28 08:46:40;;;;;;;0.60;0.57;;;;;;;16.96;31.33;100085.88;4444845;32;34300;-80
2023/04/28 08:49:14;;;;;;;0.50;0.50;;;;;;;17.09;33.92;100079.34;4446055;32;32843;-80
2023/04/28 08:51:47;;;;;;;0.70;0.70;;;;;;;17.05;32.64;100078.56;4445768;32;34423;-81
2023/04/28 08:54:16;;;;;;;2.08;0.77;;;;;;;17.20;32.31;100068.47;4446067;32;34491;-81
2023/04/28 08:56:55;;;;;;;0.73;0.60;;;;;;;17.21;33.15;100063.19;4451591;32;33467;-80
2023/04/28 08:59:26;;;;;;;1.10;1.00;;;;;;;17.57;32.31;100069.84;4445736;32;33282;-82
2023/04/28 09:01:55;;;;;;;0.62;0.60;;;;;;;17.56;31.82;100074.19;4436653;32;33854;-82
2023/04/28 09:04:25;;;;;;;0.50;0.50;;;;;;;17.62;31.03;100071.37;4430360;32;33566;-81
2023/04/28 09:06:55;;;;;;;0.40;0.40;;;;;;;17.82;30.72;100068.03;4435568;32;34341;-81
2023/04/28 09:09:26;;;;;;;0.70;0.70;;;;;;;17.70;29.56;100074.56;4441216;32;34813;-81
2023/04/28 09:11:57;;;;;;;0.40;0.40;;;;;;;17.88;29.47;100070.44;4445790;32;34290;-80
2023/04/28 09:14:28;;;;;;;0.62;0.62;;;;;;;17.61;30.75;100072.25;4446241;32;34399;-81
2023/04/28 09:16:57;;;;;;;1.17;0.90;;;;;;;17.88;30.89;100067.84;4445647;32;33739;-82
2023/04/28 09:19:33;;;;;;;1.12;1.05;;;;;;;17.95;30.69;100073.69;4451530;32;33160;-82
2023/04/28 09:22:02;;;;;;;0.40;0.40;;;;;;;18.10;28.53;100060.00;4445268;32;33543;-81
2023/04/28 09:24:51;;;;;;;0.40;0.40;;;;;;;18.06;29.14;100065.41;4445728;32;34587;-82
2023/04/28 09:27:28;;;;;;;0.85;0.60;;;;;;;18.24;29.06;100058.59;4445938;32;33877;-81
2023/04/28 09:29:59;;;;;;;0.47;0.47;;;;;;;18.14;28.27;100063.34;4445570;32;33199;-79
2023/04/28 09:32:28;;;;;;;0.50;0.50;;;;;;;18.57;27.65;100061.66;4451215;32;34620;-81
2023/04/28 09:34:58;;;;;;;0.45;0.45;;;;;;;18.44;27.97;100063.94;4445748;32;34541;-82
2023/04/28 09:37:29;;;;;;;0.35;0.35;;;;;;;18.44;28.01;100069.19;4445480;32;34266;-79
2023/04/28 09:40:05;;;;;;;0.77;0.70;;;;;;;18.96;27.44;100061.81;4445781;32;33328;-81
2023/04/28 09:42:38;;;;;;;0.35;0.35;;;;;;;18.52;28.49;100051.34;4445620;32;34317;-80
2023/04/28 09:45:10;;;;;;;0.50;0.50;;;;;;;19.12;29.60;100048.03;4450912;32;34300;-81
2023/04/28 09:47:40;;;;;;;1.27;0.60;;;;;;;19.38;27.47;100053.03;4445641;32;33676;-82
2023/04/28 09:50:13;;;;;;;0.77;0.50;;;;;;;19.56;27.92;100046.09;4445744;32;32463;-81
2023/04/28 09:52:43;;;;;;;0.40;0.40;;;;;;;19.65;26.44;100042.22;4445388;32;33866;-80
2023/04/28 09:55:13;;;;;;;0.45;0.45;;;;;;;19.52;26.15;100051.56;4447026;32;34157;-81
2023/04/28 09:57:45;;;;;;;1.62;1.52;;;;;;;19.41;25.11;100049.41;4451033;32;33568;-80
2023/04/28 10:00:19;;;;;;;0.60;0.60;;;;;;;19.40;24.69;100045.94;4445524;32;32421;-83
2023/04/28 10:02:48;;;;;;;;;;;;;;;19.13;26.51;100041.84;4446501;32;33648;-81
2023/04/28 10:05:18;;;;;;;0.40;0.40;;;;;;;19.20;27.31;100035.41;4447215;32;33664;-80
2023/04/28 10:07:47;;;;;;;0.63;0.63;;;;;;;18.70;27.45;100030.47;4447486;32;33279;-82
2023/04/28 10:10:17;;;;;;;1.10;1.00;;;;;;;19.34;28.04;100026.94;4436804;32;33660;-82
2023/04/28 10:12:47;;;;;;;1.02;0.93;;;;;;;19.43;26.53;100026.53;4445291;32;33866;-81
2023/04/28 10:15:16;;;;;;;0.40;0.40;;;;;;;19.17;25.52;100025.03;4445146;32;33522;-82
2023/04/28 10:17:48;;;;;;;0.55;0.50;;;;;;;19.43;26.61;100021.25;4445108;32;33723;-81
2023/04/28 10:20:18;;;;;;;0.40;0.40;;;;;;;19.50;26.18;100014.81;4450921;32;33872;-81
2023/04/28 10:22:56;;;;;;;2.33;0.50;;;;;;;19.60;26.03;100012.63;4445528;32;33634;-80
2023/04/28 10:25:27;;;;;;;0.50;0.40;;;;;;;19.73;26.55;100013.78;4445342;32;33681;-80
2023/04/28 10:27:55;;;;;;;1.35;1.25;;;;;;;19.48;26.83;100005.28;4445287;32;33166;-80
2023/04/28 10:30:27;;;;;;;0.50;0.50;;;;;;;19.61;27.70;99999.38;4450853;32;33182;-81
2023/04/28 10:33:28;;;;;;;1.05;0.70;;;;;;;19.83;26.10;99998.41;4444855;32;34691;-81
2023/04/28 10:35:58;;;;;;;0.35;0.35;;;;;;;20.00;26.93;99995.84;4445868;32;34666;-82
2023/04/28 10:38:26;;;;;;;0.40;0.40;;;;;;;19.45;25.88;99986.97;4445317;32;33667;-81
2023/04/28 10:41:00;;;;;;;0.40;0.40;;;;;;;19.59;27.31;99984.56;4445064;32;33500;-83
2023/04/28 10:43:39;;;;;;;0.70;0.52;;;;;;;19.67;28.58;99994.75;4445469;32;33769;-81
2023/04/28 10:46:11;;;;;;;1.17;1.05;;;;;;;19.59;26.50;99985.41;4450741;32;33594;-82
2023/04/28 10:48:57;;;;;;;0.60;0.60;;;;;;;19.52;26.97;99984.03;4445310;32;33536;-80
2023/04/28 10:51:30;;;;;;;0.60;0.60;;;;;;;19.56;27.21;99982.09;4444439;32;33868;-81
2023/04/28 10:54:19;;;;;;;0.55;0.40;;;;;;;19.63;26.85;99970.34;4444981;32;33268;-81
2023/04/28 10:57:19;;;;;;;0.47;0.47;;;;;;;19.19;26.53;99966.19;4444930;32;33979;-82
2023/04/28 10:59:50;;;;;;;0.98;0.65;;;;;;;19.50;27.48;99958.66;4444418;32;34182;-83
2023/04/28 11:02:39;;;;;;;0.65;0.40;;;;;;;19.84;26.62;99958.00;4439008;32;32662;-81
2023/04/28 11:05:20;;;;;;;0.50;0.50;;;;;;;19.88;26.27;99959.56;4435449;32;33658;-80
2023/04/28 11:08:29;;;;;;;0.35;0.35;;;;;;;20.27;25.11;99955.91;4438316;32;34573;-82
2023/04/28 11:11:15;;;;;;;0.30;0.30;;;;;;;19.94;25.48;99958.44;4433563;32;33371;-82
2023/04/28 11:13:46;;;;;;;0.77;0.50;;;;;;;20.48;25.28;99947.91;4447158;32;32977;-82
2023/04/28 11:16:17;;;;;;;0.30;0.30;;;;;;;20.35;24.67;99945.03;4446866;32;33608;-80
2023/04/28 11:19:02;;;;;;;0.40;0.40;;;;;;;20.39;25.72;99951.84;4452286;32;33800;-81
2023/04/28 11:21:33;;;;;;;0.30;0.30;;;;;;;19.92;26.08;99934.78;4451982;32;33902;-81
2023/04/28 11:24:09;;;;;;;1.65;1.27;;;;;;;19.62;27.27;99937.94;4446678;32;33433;-82
2023/04/28 11:26:38;;;;;;;0.30;0.30;;;;;;;20.11;27.18;99939.19;4446434;32;34793;-81
2023/04/28 11:29:07;;;;;;;0.40;0.40;;;;;;;20.36;27.31;99942.31;4445860;32;34648;-81
2023/04/28 11:31:38;;;;;;;;;;;;;;;19.85;27.46;99938.66;4436675;32;34377;-80
2023/04/28 11:34:13;;;;;;;0.30;0.30;;;;;;;19.98;27.38;99938.91;4434180;32;32460;-81
2023/04/28 11:36:43;;;;;;;0.73;0.35;;;;;;;20.36;26.69;99941.47;4431131;32;33849;-81
2023/04/28 11:39:14;;;;;;;0.40;0.40;;;;;;;20.43;25.37;99934.94;4430234;32;33238;-81
2023/04/28 11:41:44;;;;;;;0.55;0.55;;;;;;;20.28;25.79;99936.56;4429848;32;32964;-80
2023/04/28 11:44:14;;;;;;;0.30;0.30;;;;;;;20.39;25.82;99923.72;4436999;32;32811;-82
2023/04/28 11:46:49;;;;;;;0.70;0.70;;;;;;;20.35;27.56;99924.81;4435197;32;34381;-82